sensor_id;sensor_type;location;lat;lon;timestamp;temperature;humidity
8664;DHT22;4369;47.842;13.096;2022-11-15T00:01:16;8.30;99.90
8664;DHT22;4369;47.842;13.096;2022-11-15T00:03:43;8.20;99.90
8664;DHT22;4369;47.842;13.096;2022-11-15T00:06:10;8.20;99.90
8664;DHT22;4369;47.842;13.096;2022-11-15T00:08:37;8.10;99.90
8664;DHT22;4369;47.842;13.096;2022-11-15T00:11:04;8.10;99.90
8664;DHT22;4369;47.842;13.096;2022-11-15T00:13:32;8.00;99.90
8664;DHT22;4369;47.842;13.096;2022-11-15T00:16:00;8.00;99.90
8664;DHT22;4369;47.842;13.096;2022-11-15T00:18:28;8.10;99.90
8664;DHT22;4369;47.842;13.096;2022-11-15T00:20:55;8.00;99.90
8664;DHT22;4369;47.842;13.096;2022-11-15T00:23:22;7.90;99.90
8664;DHT22;4369;47.842;13.096;2022-11-15T00:25:55;7.90;99.90
8664;DHT22;4369;47.842;13.096;2022-11-15T00:28:22;7.90;99.90
8664;DHT22;4369;47.842;13.096;2022-11-15T00:30:51;7.90;99.90
8664;DHT22;4369;47.842;13.096;2022-11-15T00:33:18;7.90;99.90
8664;DHT22;4369;47.842;13.096;2022-11-15T00:35:44;7.90;99.90
8664;DHT22;4369;47.842;13.096;2022-11-15T00:38:11;7.90;99.90
8664;DHT22;4369;47.842;13.096;2022-11-15T00:40:38;7.90;99.90
8664;DHT22;4369;47.842;13.096;2022-11-15T00:43:05;7.90;99.90
8664;DHT22;4369;47.842;13.096;2022-11-15T00:45:32;7.80;99.90
8664;DHT22;4369;47.842;13.096;2022-11-15T00:48:00;7.60;99.90
8664;DHT22;4369;47.842;13.096;2022-11-15T00:50:27;7.60;99.90
8664;DHT22;4369;47.842;13.096;2022-11-15T00:52:54;7.60;99.90
8664;DHT22;4369;47.842;13.096;2022-11-15T00:55:21;7.70;99.90
8664;DHT22;4369;47.842;13.096;2022-11-15T00:57:47;7.70;99.90
8664;DHT22;4369;47.842;13.096;2022-11-15T01:00:15;7.60;99.90
8664;DHT22;4369;47.842;13.096;2022-11-15T01:02:42;7.70;99.90
8664;DHT22;4369;47.842;13.096;2022-11-15T01:05:10;7.70;99.90
8664;DHT22;4369;47.842;13.096;2022-11-15T01:07:37;7.50;99.90
8664;DHT22;4369;47.842;13.096;2022-11-15T01:10:04;7.50;99.90
8664;DHT22;4369;47.842;13.096;2022-11-15T01:12:31;7.40;99.90
8664;DHT22;4369;47.842;13.096;2022-11-15T01:14:58;7.50;99.90
8664;DHT22;4369;47.842;13.096;2022-11-15T01:17:25;7.40;99.90
8664;DHT22;4369;47.842;13.096;2022-11-15T01:19:52;7.40;99.90
8664;DHT22;4369;47.842;13.096;2022-11-15T01:22:21;7.50;99.90
8664;DHT22;4369;47.842;13.096;2022-11-15T01:24:49;7.40;99.90
8664;DHT22;4369;47.842;13.096;2022-11-15T01:27:16;7.40;99.90
8664;DHT22;4369;47.842;13.096;2022-11-15T01:29:43;7.40;99.90
8664;DHT22;4369;47.842;13.096;2022-11-15T01:32:10;7.30;99.90
8664;DHT22;4369;47.842;13.096;2022-11-15T01:34:36;7.40;99.90
8664;DHT22;4369;47.842;13.096;2022-11-15T01:37:03;7.50;99.90
8664;DHT22;4369;47.842;13.096;2022-11-15T01:39:31;7.50;99.90
8664;DHT22;4369;47.842;13.096;2022-11-15T01:41:58;7.40;99.90
8664;DHT22;4369;47.842;13.096;2022-11-15T01:44:38;7.40;99.90
8664;DHT22;4369;47.842;13.096;2022-11-15T01:47:08;7.40;99.90
8664;DHT22;4369;47.842;13.096;2022-11-15T01:49:38;7.40;99.90
8664;DHT22;4369;47.842;13.096;2022-11-15T01:52:12;7.30;99.90
8664;DHT22;4369;47.842;13.096;2022-11-15T01:54:42;7.40;99.90
8664;DHT22;4369;47.842;13.096;2022-11-15T01:57:10;7.30;99.90
8664;DHT22;4369;47.842;13.096;2022-11-15T01:59:40;7.30;99.90
8664;DHT22;4369;47.842;13.096;2022-11-15T02:02:09;7.20;99.90
8664;DHT22;4369;47.842;13.096;2022-11-15T02:04:39;7.20;99.90
8664;DHT22;4369;47.842;13.096;2022-11-15T02:07:08;7.20;99.90
8664;DHT22;4369;47.842;13.096;2022-11-15T02:09:36;7.20;99.90
8664;DHT22;4369;47.842;13.096;2022-11-15T02:12:06;7.10;99.90
8664;DHT22;4369;47.842;13.096;2022-11-15T02:14:36;7.00;99.90
8664;DHT22;4369;47.842;13.096;2022-11-15T02:17:12;7.10;99.90
8664;DHT22;4369;47.842;13.096;2022-11-15T02:23:04;7.10;99.90
8664;DHT22;4369;47.842;13.096;2022-11-15T02:25:39;7.20;99.90
8664;DHT22;4369;47.842;13.096;2022-11-15T02:31:11;7.10;99.90
8664;DHT22;4369;47.842;13.096;2022-11-15T02:33:47;7.10;99.90
8664;DHT22;4369;47.842;13.096;2022-11-15T02:36:26;7.00;99.90
8664;DHT22;4369;47.842;13.096;2022-11-15T02:38:59;7.00;99.90
8664;DHT22;4369;47.842;13.096;2022-11-15T02:41:30;7.00;99.90
8664;DHT22;4369;47.842;13.096;2022-11-15T02:44:02;7.00;99.90
8664;DHT22;4369;47.842;13.096;2022-11-15T02:46:35;7.10;99.90
8664;DHT22;4369;47.842;13.096;2022-11-15T02:49:21;7.00;99.90
8664;DHT22;4369;47.842;13.096;2022-11-15T02:51:49;7.00;99.90
8664;DHT22;4369;47.842;13.096;2022-11-15T02:54:21;7.00;99.90
8664;DHT22;4369;47.842;13.096;2022-11-15T02:56:49;7.00;99.90
8664;DHT22;4369;47.842;13.096;2022-11-15T02:59:37;6.90;99.90
8664;DHT22;4369;47.842;13.096;2022-11-15T03:02:18;6.90;99.90
8664;DHT22;4369;47.842;13.096;2022-11-15T03:04:53;6.90;99.90
8664;DHT22;4369;47.842;13.096;2022-11-15T03:07:26;6.90;99.90
8664;DHT22;4369;47.842;13.096;2022-11-15T03:10:02;6.80;99.90
8664;DHT22;4369;47.842;13.096;2022-11-15T03:12:36;6.80;99.90
8664;DHT22;4369;47.842;13.096;2022-11-15T03:15:11;6.80;99.90
8664;DHT22;4369;47.842;13.096;2022-11-15T03:17:43;6.70;99.90
8664;DHT22;4369;47.842;13.096;2022-11-15T03:20:16;6.70;99.90
8664;DHT22;4369;47.842;13.096;2022-11-15T03:22:45;6.70;99.90
8664;DHT22;4369;47.842;13.096;2022-11-15T03:25:19;6.70;99.90
8664;DHT22;4369;47.842;13.096;2022-11-15T03:27:50;6.70;99.90
8664;DHT22;4369;47.842;13.096;2022-11-15T03:30:18;6.70;99.90
8664;DHT22;4369;47.842;13.096;2022-11-15T03:32:49;6.70;99.90
8664;DHT22;4369;47.842;13.096;2022-11-15T03:35:19;6.60;99.90
8664;DHT22;4369;47.842;13.096;2022-11-15T03:37:54;6.50;99.90
8664;DHT22;4369;47.842;13.096;2022-11-15T03:40:25;6.50;99.90
8664;DHT22;4369;47.842;13.096;2022-11-15T03:43:00;6.50;99.90
8664;DHT22;4369;47.842;13.096;2022-11-15T03:45:31;6.40;99.90
8664;DHT22;4369;47.842;13.096;2022-11-15T03:48:05;6.40;99.90
8664;DHT22;4369;47.842;13.096;2022-11-15T03:50:34;6.40;99.90
8664;DHT22;4369;47.842;13.096;2022-11-15T03:53:01;6.40;99.90
8664;DHT22;4369;47.842;13.096;2022-11-15T03:55:28;6.50;99.90
8664;DHT22;4369;47.842;13.096;2022-11-15T03:57:58;6.40;99.90
8664;DHT22;4369;47.842;13.096;2022-11-15T04:00:26;6.40;99.90
8664;DHT22;4369;47.842;13.096;2022-11-15T04:02:53;6.30;99.90
8664;DHT22;4369;47.842;13.096;2022-11-15T04:05:21;6.30;99.90
8664;DHT22;4369;47.842;13.096;2022-11-15T04:07:48;6.30;99.90
8664;DHT22;4369;47.842;13.096;2022-11-15T04:10:15;6.30;99.90
8664;DHT22;4369;47.842;13.096;2022-11-15T04:12:43;6.30;99.90
8664;DHT22;4369;47.842;13.096;2022-11-15T04:15:17;6.20;99.90
8664;DHT22;4369;47.842;13.096;2022-11-15T04:17:46;6.20;99.90
8664;DHT22;4369;47.842;13.096;2022-11-15T04:20:17;6.20;99.90
8664;DHT22;4369;47.842;13.096;2022-11-15T04:23:04;6.30;99.90
8664;DHT22;4369;47.842;13.096;2022-11-15T04:25:50;6.30;99.90
8664;DHT22;4369;47.842;13.096;2022-11-15T04:28:18;6.30;99.90
8664;DHT22;4369;47.842;13.096;2022-11-15T04:30:45;6.30;99.90
8664;DHT22;4369;47.842;13.096;2022-11-15T04:33:12;6.30;99.90
8664;DHT22;4369;47.842;13.096;2022-11-15T04:35:39;6.30;99.90
8664;DHT22;4369;47.842;13.096;2022-11-15T04:38:08;6.30;99.90
8664;DHT22;4369;47.842;13.096;2022-11-15T04:40:35;6.30;99.90
8664;DHT22;4369;47.842;13.096;2022-11-15T04:43:02;6.20;99.90
8664;DHT22;4369;47.842;13.096;2022-11-15T04:45:29;6.20;99.90
8664;DHT22;4369;47.842;13.096;2022-11-15T04:47:56;6.20;99.90
8664;DHT22;4369;47.842;13.096;2022-11-15T04:50:23;6.30;99.90
8664;DHT22;4369;47.842;13.096;2022-11-15T04:52:51;6.20;99.90
8664;DHT22;4369;47.842;13.096;2022-11-15T04:55:20;6.20;99.90
8664;DHT22;4369;47.842;13.096;2022-11-15T04:57:47;6.10;99.90
8664;DHT22;4369;47.842;13.096;2022-11-15T05:00:16;6.10;99.90
8664;DHT22;4369;47.842;13.096;2022-11-15T05:02:43;6.00;99.90
8664;DHT22;4369;47.842;13.096;2022-11-15T05:05:27;6.00;99.90
8664;DHT22;4369;47.842;13.096;2022-11-15T05:07:54;6.00;99.90
8664;DHT22;4369;47.842;13.096;2022-11-15T05:10:22;6.00;99.90
8664;DHT22;4369;47.842;13.096;2022-11-15T05:12:49;6.00;99.90
8664;DHT22;4369;47.842;13.096;2022-11-15T05:15:16;6.00;99.90
8664;DHT22;4369;47.842;13.096;2022-11-15T05:17:43;6.00;99.90
8664;DHT22;4369;47.842;13.096;2022-11-15T05:20:10;6.00;99.90
8664;DHT22;4369;47.842;13.096;2022-11-15T05:22:37;5.90;99.90
8664;DHT22;4369;47.842;13.096;2022-11-15T05:25:05;6.00;99.90
8664;DHT22;4369;47.842;13.096;2022-11-15T05:27:34;6.00;99.90
8664;DHT22;4369;47.842;13.096;2022-11-15T05:30:02;6.00;99.90
8664;DHT22;4369;47.842;13.096;2022-11-15T05:32:29;6.00;99.90
8664;DHT22;4369;47.842;13.096;2022-11-15T05:34:55;6.00;99.90
8664;DHT22;4369;47.842;13.096;2022-11-15T05:37:23;6.00;99.90
8664;DHT22;4369;47.842;13.096;2022-11-15T05:39:50;6.00;99.90
8664;DHT22;4369;47.842;13.096;2022-11-15T05:42:17;6.10;99.90
8664;DHT22;4369;47.842;13.096;2022-11-15T05:44:48;6.10;99.90
8664;DHT22;4369;47.842;13.096;2022-11-15T05:47:39;6.10;99.90
8664;DHT22;4369;47.842;13.096;2022-11-15T05:50:07;6.00;99.90
8664;DHT22;4369;47.842;13.096;2022-11-15T05:52:36;6.00;99.90
8664;DHT22;4369;47.842;13.096;2022-11-15T05:55:06;6.00;99.90
8664;DHT22;4369;47.842;13.096;2022-11-15T05:57:33;6.00;99.90
8664;DHT22;4369;47.842;13.096;2022-11-15T06:00:03;6.00;99.90
8664;DHT22;4369;47.842;13.096;2022-11-15T06:02:31;5.80;99.90
8664;DHT22;4369;47.842;13.096;2022-11-15T06:04:58;5.80;99.90
8664;DHT22;4369;47.842;13.096;2022-11-15T06:07:24;5.90;99.90
8664;DHT22;4369;47.842;13.096;2022-11-15T06:09:51;5.90;99.90
8664;DHT22;4369;47.842;13.096;2022-11-15T06:12:18;6.00;99.90
8664;DHT22;4369;47.842;13.096;2022-11-15T06:14:45;5.90;99.90
8664;DHT22;4369;47.842;13.096;2022-11-15T06:17:13;5.90;99.90
8664;DHT22;4369;47.842;13.096;2022-11-15T06:19:40;5.90;99.90
8664;DHT22;4369;47.842;13.096;2022-11-15T06:22:07;5.90;99.90
8664;DHT22;4369;47.842;13.096;2022-11-15T06:24:34;6.00;99.90
8664;DHT22;4369;47.842;13.096;2022-11-15T06:27:01;6.00;99.90
8664;DHT22;4369;47.842;13.096;2022-11-15T06:29:30;5.90;99.90
8664;DHT22;4369;47.842;13.096;2022-11-15T06:31:57;5.80;99.90
8664;DHT22;4369;47.842;13.096;2022-11-15T06:34:25;5.90;99.90
8664;DHT22;4369;47.842;13.096;2022-11-15T06:36:52;5.90;99.90
8664;DHT22;4369;47.842;13.096;2022-11-15T06:39:19;5.80;99.90
8664;DHT22;4369;47.842;13.096;2022-11-15T06:41:46;5.90;99.90
8664;DHT22;4369;47.842;13.096;2022-11-15T06:44:12;5.90;99.90
8664;DHT22;4369;47.842;13.096;2022-11-15T06:46:39;5.90;99.90
8664;DHT22;4369;47.842;13.096;2022-11-15T06:49:06;5.80;99.90
8664;DHT22;4369;47.842;13.096;2022-11-15T06:51:34;5.90;99.90
8664;DHT22;4369;47.842;13.096;2022-11-15T06:54:02;5.90;99.90
8664;DHT22;4369;47.842;13.096;2022-11-15T06:56:29;5.90;99.90
8664;DHT22;4369;47.842;13.096;2022-11-15T06:58:56;5.90;99.90
8664;DHT22;4369;47.842;13.096;2022-11-15T07:01:22;5.90;99.90
8664;DHT22;4369;47.842;13.096;2022-11-15T07:03:49;6.00;99.90
8664;DHT22;4369;47.842;13.096;2022-11-15T07:06:16;5.90;99.90
8664;DHT22;4369;47.842;13.096;2022-11-15T07:08:44;6.00;99.90
8664;DHT22;4369;47.842;13.096;2022-11-15T07:11:11;6.00;99.90
8664;DHT22;4369;47.842;13.096;2022-11-15T07:13:38;6.10;99.90
8664;DHT22;4369;47.842;13.096;2022-11-15T07:16:07;6.10;99.90
8664;DHT22;4369;47.842;13.096;2022-11-15T07:18:34;6.10;99.90
8664;DHT22;4369;47.842;13.096;2022-11-15T07:21:02;6.10;99.90
8664;DHT22;4369;47.842;13.096;2022-11-15T07:23:29;6.10;99.90
8664;DHT22;4369;47.842;13.096;2022-11-15T07:25:58;6.20;99.90
8664;DHT22;4369;47.842;13.096;2022-11-15T07:28:25;6.20;99.90
8664;DHT22;4369;47.842;13.096;2022-11-15T07:30:51;6.20;99.90
8664;DHT22;4369;47.842;13.096;2022-11-15T07:33:18;6.20;99.90
8664;DHT22;4369;47.842;13.096;2022-11-15T07:35:45;6.20;99.90
8664;DHT22;4369;47.842;13.096;2022-11-15T07:38:15;6.30;99.90
8664;DHT22;4369;47.842;13.096;2022-11-15T07:40:44;6.20;99.90
8664;DHT22;4369;47.842;13.096;2022-11-15T07:43:13;6.20;99.90
8664;DHT22;4369;47.842;13.096;2022-11-15T07:45:41;6.20;99.90
8664;DHT22;4369;47.842;13.096;2022-11-15T07:48:08;6.20;99.90
8664;DHT22;4369;47.842;13.096;2022-11-15T07:50:35;6.20;99.90
8664;DHT22;4369;47.842;13.096;2022-11-15T07:53:02;6.30;99.90
8664;DHT22;4369;47.842;13.096;2022-11-15T07:55:29;6.40;99.90
8664;DHT22;4369;47.842;13.096;2022-11-15T07:58:00;6.40;99.90
8664;DHT22;4369;47.842;13.096;2022-11-15T08:00:29;6.50;99.90
8664;DHT22;4369;47.842;13.096;2022-11-15T08:03:04;6.60;99.90
8664;DHT22;4369;47.842;13.096;2022-11-15T08:05:31;6.70;99.90
8664;DHT22;4369;47.842;13.096;2022-11-15T08:07:58;6.90;99.90
8664;DHT22;4369;47.842;13.096;2022-11-15T08:10:25;7.10;99.90
8664;DHT22;4369;47.842;13.096;2022-11-15T08:12:59;7.30;99.90
8664;DHT22;4369;47.842;13.096;2022-11-15T08:15:26;7.50;99.90
8664;DHT22;4369;47.842;13.096;2022-11-15T08:17:55;7.60;99.90
8664;DHT22;4369;47.842;13.096;2022-11-15T08:20:23;7.80;99.90
8664;DHT22;4369;47.842;13.096;2022-11-15T08:22:50;7.90;99.90
8664;DHT22;4369;47.842;13.096;2022-11-15T08:25:18;8.10;99.90
8664;DHT22;4369;47.842;13.096;2022-11-15T08:27:45;8.20;99.90
8664;DHT22;4369;47.842;13.096;2022-11-15T08:30:12;8.40;99.90
8664;DHT22;4369;47.842;13.096;2022-11-15T08:32:41;8.70;99.90
8664;DHT22;4369;47.842;13.096;2022-11-15T08:35:09;8.90;99.90
8664;DHT22;4369;47.842;13.096;2022-11-15T08:37:37;9.00;99.90
8664;DHT22;4369;47.842;13.096;2022-11-15T08:40:05;9.20;99.90
8664;DHT22;4369;47.842;13.096;2022-11-15T08:42:32;9.50;99.90
8664;DHT22;4369;47.842;13.096;2022-11-15T08:44:59;9.50;99.90
8664;DHT22;4369;47.842;13.096;2022-11-15T08:47:26;9.70;99.90
8664;DHT22;4369;47.842;13.096;2022-11-15T08:49:53;9.80;99.90
8664;DHT22;4369;47.842;13.096;2022-11-15T08:52:21;10.00;99.90
8664;DHT22;4369;47.842;13.096;2022-11-15T08:54:48;10.30;99.90
8664;DHT22;4369;47.842;13.096;2022-11-15T08:57:15;10.40;99.90
8664;DHT22;4369;47.842;13.096;2022-11-15T08:59:42;10.60;99.90
8664;DHT22;4369;47.842;13.096;2022-11-15T09:02:12;10.70;99.90
8664;DHT22;4369;47.842;13.096;2022-11-15T09:04:40;10.80;99.90
8664;DHT22;4369;47.842;13.096;2022-11-15T09:07:07;11.00;99.90
8664;DHT22;4369;47.842;13.096;2022-11-15T09:09:36;11.10;99.90
8664;DHT22;4369;47.842;13.096;2022-11-15T09:12:04;11.30;99.90
8664;DHT22;4369;47.842;13.096;2022-11-15T09:14:31;11.50;99.90
8664;DHT22;4369;47.842;13.096;2022-11-15T09:16:58;11.60;99.90
8664;DHT22;4369;47.842;13.096;2022-11-15T09:19:26;11.90;99.90
8664;DHT22;4369;47.842;13.096;2022-11-15T09:21:53;12.20;99.90
8664;DHT22;4369;47.842;13.096;2022-11-15T09:24:19;12.40;99.90
8664;DHT22;4369;47.842;13.096;2022-11-15T09:26:49;12.80;99.90
8664;DHT22;4369;47.842;13.096;2022-11-15T09:29:17;13.10;99.90
8664;DHT22;4369;47.842;13.096;2022-11-15T09:31:44;13.40;99.90
8664;DHT22;4369;47.842;13.096;2022-11-15T09:34:11;13.80;99.90
8664;DHT22;4369;47.842;13.096;2022-11-15T09:36:38;14.10;99.90
8664;DHT22;4369;47.842;13.096;2022-11-15T09:39:05;14.40;99.90
8664;DHT22;4369;47.842;13.096;2022-11-15T09:41:43;14.70;99.90
8664;DHT22;4369;47.842;13.096;2022-11-15T09:44:35;15.10;99.90
8664;DHT22;4369;47.842;13.096;2022-11-15T09:47:17;15.60;97.70
8664;DHT22;4369;47.842;13.096;2022-11-15T09:49:47;15.90;97.00
8664;DHT22;4369;47.842;13.096;2022-11-15T09:52:18;16.50;95.70
8664;DHT22;4369;47.842;13.096;2022-11-15T09:54:48;17.10;93.30
8664;DHT22;4369;47.842;13.096;2022-11-15T09:57:26;17.80;92.50
8664;DHT22;4369;47.842;13.096;2022-11-15T10:00:11;19.00;85.80
8664;DHT22;4369;47.842;13.096;2022-11-15T10:02:52;20.40;76.30
8664;DHT22;4369;47.842;13.096;2022-11-15T10:05:22;21.10;71.10
8664;DHT22;4369;47.842;13.096;2022-11-15T10:07:57;21.80;66.90
8664;DHT22;4369;47.842;13.096;2022-11-15T10:10:31;23.40;61.90
8664;DHT22;4369;47.842;13.096;2022-11-15T10:19:27;26.00;50.70
8664;DHT22;4369;47.842;13.096;2022-11-15T10:22:04;26.90;47.80
8664;DHT22;4369;47.842;13.096;2022-11-15T10:24:39;28.20;45.00
8664;DHT22;4369;47.842;13.096;2022-11-15T10:27:09;28.30;42.50
8664;DHT22;4369;47.842;13.096;2022-11-15T10:29:42;28.40;41.80
8664;DHT22;4369;47.842;13.096;2022-11-15T10:32:10;28.50;40.20
8664;DHT22;4369;47.842;13.096;2022-11-15T10:34:38;29.80;38.30
8664;DHT22;4369;47.842;13.096;2022-11-15T10:37:05;31.40;37.20
8664;DHT22;4369;47.842;13.096;2022-11-15T10:39:33;33.50;34.80
8664;DHT22;4369;47.842;13.096;2022-11-15T10:42:15;34.90;32.80
8664;DHT22;4369;47.842;13.096;2022-11-15T10:44:43;34.50;31.90
8664;DHT22;4369;47.842;13.096;2022-11-15T10:47:25;34.90;31.60
8664;DHT22;4369;47.842;13.096;2022-11-15T10:49:56;35.60;30.90
8664;DHT22;4369;47.842;13.096;2022-11-15T10:52:24;34.40;31.10
8664;DHT22;4369;47.842;13.096;2022-11-15T10:54:53;35.00;30.80
8664;DHT22;4369;47.842;13.096;2022-11-15T10:57:22;36.40;29.50
8664;DHT22;4369;47.842;13.096;2022-11-15T10:59:54;36.40;29.40
8664;DHT22;4369;47.842;13.096;2022-11-15T11:02:28;37.40;29.80
8664;DHT22;4369;47.842;13.096;2022-11-15T11:04:58;40.10;28.20
8664;DHT22;4369;47.842;13.096;2022-11-15T11:07:26;41.70;27.30
8664;DHT22;4369;47.842;13.096;2022-11-15T11:10:02;43.00;26.30
8664;DHT22;4369;47.842;13.096;2022-11-15T11:12:32;44.60;25.50
8664;DHT22;4369;47.842;13.096;2022-11-15T11:15:01;44.20;24.80
8664;DHT22;4369;47.842;13.096;2022-11-15T11:17:40;44.10;24.90
8664;DHT22;4369;47.842;13.096;2022-11-15T11:20:18;43.60;24.50
8664;DHT22;4369;47.842;13.096;2022-11-15T11:22:57;43.90;25.00
8664;DHT22;4369;47.842;13.096;2022-11-15T11:25:33;45.80;24.30
8664;DHT22;4369;47.842;13.096;2022-11-15T11:28:22;46.50;24.20
8664;DHT22;4369;47.842;13.096;2022-11-15T11:31:00;46.50;23.40
8664;DHT22;4369;47.842;13.096;2022-11-15T11:33:34;48.00;23.30
8664;DHT22;4369;47.842;13.096;2022-11-15T11:36:13;47.50;23.00
8664;DHT22;4369;47.842;13.096;2022-11-15T11:39:01;48.20;23.30
8664;DHT22;4369;47.842;13.096;2022-11-15T11:41:46;48.40;22.80
8664;DHT22;4369;47.842;13.096;2022-11-15T11:44:25;49.30;22.70
8664;DHT22;4369;47.842;13.096;2022-11-15T11:46:56;50.30;22.90
8664;DHT22;4369;47.842;13.096;2022-11-15T11:49:30;50.00;22.60
8664;DHT22;4369;47.842;13.096;2022-11-15T11:52:08;50.00;22.50
8664;DHT22;4369;47.842;13.096;2022-11-15T11:54:42;49.90;22.40
8664;DHT22;4369;47.842;13.096;2022-11-15T11:57:17;50.60;22.20
8664;DHT22;4369;47.842;13.096;2022-11-15T11:59:52;49.10;21.20
8664;DHT22;4369;47.842;13.096;2022-11-15T12:02:27;48.70;21.40
8664;DHT22;4369;47.842;13.096;2022-11-15T12:05:01;47.80;21.60
8664;DHT22;4369;47.842;13.096;2022-11-15T12:07:32;47.30;21.90
8664;DHT22;4369;47.842;13.096;2022-11-15T12:10:04;46.80;23.80
8664;DHT22;4369;47.842;13.096;2022-11-15T12:12:39;44.60;27.70
8664;DHT22;4369;47.842;13.096;2022-11-15T12:15:18;43.20;24.60
8664;DHT22;4369;47.842;13.096;2022-11-15T12:17:46;42.60;25.10
8664;DHT22;4369;47.842;13.096;2022-11-15T12:20:18;42.30;25.00
8664;DHT22;4369;47.842;13.096;2022-11-15T12:22:53;42.10;25.20
8664;DHT22;4369;47.842;13.096;2022-11-15T12:25:24;39.50;25.70
8664;DHT22;4369;47.842;13.096;2022-11-15T12:27:54;37.40;27.20
8664;DHT22;4369;47.842;13.096;2022-11-15T12:30:23;35.90;28.70
8664;DHT22;4369;47.842;13.096;2022-11-15T12:32:54;34.30;29.80
8664;DHT22;4369;47.842;13.096;2022-11-15T12:35:26;32.10;30.60
8664;DHT22;4369;47.842;13.096;2022-11-15T12:37:56;30.50;33.10
8664;DHT22;4369;47.842;13.096;2022-11-15T12:40:28;30.10;33.20
8664;DHT22;4369;47.842;13.096;2022-11-15T12:45:55;29.40;33.60
8664;DHT22;4369;47.842;13.096;2022-11-15T12:57:52;31.40;32.00
8664;DHT22;4369;47.842;13.096;2022-11-15T13:00:43;30.20;33.30
8664;DHT22;4369;47.842;13.096;2022-11-15T13:03:24;28.90;34.60
8664;DHT22;4369;47.842;13.096;2022-11-15T13:08:52;29.40;35.10
8664;DHT22;4369;47.842;13.096;2022-11-15T13:11:42;30.30;33.90
8664;DHT22;4369;47.842;13.096;2022-11-15T13:14:47;31.80;33.00
8664;DHT22;4369;47.842;13.096;2022-11-15T13:17:33;32.30;32.10
8664;DHT22;4369;47.842;13.096;2022-11-15T13:22:46;32.80;30.60
8664;DHT22;4369;47.842;13.096;2022-11-15T13:25:58;33.00;30.70
8664;DHT22;4369;47.842;13.096;2022-11-15T13:28:32;32.70;30.30
8664;DHT22;4369;47.842;13.096;2022-11-15T13:31:03;32.00;31.20
8664;DHT22;4369;47.842;13.096;2022-11-15T13:33:32;31.60;30.80
8664;DHT22;4369;47.842;13.096;2022-11-15T13:36:03;31.40;31.10
8664;DHT22;4369;47.842;13.096;2022-11-15T13:38:32;31.80;31.00
8664;DHT22;4369;47.842;13.096;2022-11-15T13:41:11;32.80;31.10
8664;DHT22;4369;47.842;13.096;2022-11-15T13:43:40;32.70;30.60
8664;DHT22;4369;47.842;13.096;2022-11-15T13:46:12;33.30;30.60
8664;DHT22;4369;47.842;13.096;2022-11-15T13:48:39;33.00;30.50
8664;DHT22;4369;47.842;13.096;2022-11-15T13:51:12;32.80;30.90
8664;DHT22;4369;47.842;13.096;2022-11-15T13:53:43;32.60;31.20
8664;DHT22;4369;47.842;13.096;2022-11-15T13:56:12;33.10;30.60
8664;DHT22;4369;47.842;13.096;2022-11-15T13:58:39;33.10;31.00
8664;DHT22;4369;47.842;13.096;2022-11-15T14:01:11;33.00;30.70
8664;DHT22;4369;47.842;13.096;2022-11-15T14:03:48;32.70;31.40
8664;DHT22;4369;47.842;13.096;2022-11-15T14:06:17;32.10;31.90
8664;DHT22;4369;47.842;13.096;2022-11-15T14:08:59;31.40;32.30
8664;DHT22;4369;47.842;13.096;2022-11-15T14:14:31;29.40;34.10
8664;DHT22;4369;47.842;13.096;2022-11-15T14:16:59;29.00;35.30
8664;DHT22;4369;47.842;13.096;2022-11-15T14:19:37;28.10;36.40
8664;DHT22;4369;47.842;13.096;2022-11-15T14:27:27;24.20;42.40
8664;DHT22;4369;47.842;13.096;2022-11-15T14:32:42;21.90;46.50
8664;DHT22;4369;47.842;13.096;2022-11-15T14:35:14;21.20;48.20
8664;DHT22;4369;47.842;13.096;2022-11-15T14:37:42;20.60;49.70
8664;DHT22;4369;47.842;13.096;2022-11-15T14:40:13;20.00;52.50
8664;DHT22;4369;47.842;13.096;2022-11-15T14:42:41;19.30;55.10
8664;DHT22;4369;47.842;13.096;2022-11-15T14:45:12;18.60;57.50
8664;DHT22;4369;47.842;13.096;2022-11-15T14:47:41;18.40;59.00
8664;DHT22;4369;47.842;13.096;2022-11-15T14:50:13;18.20;61.60
8664;DHT22;4369;47.842;13.096;2022-11-15T14:52:40;17.60;65.10
8664;DHT22;4369;47.842;13.096;2022-11-15T14:55:16;17.10;70.50
8664;DHT22;4369;47.842;13.096;2022-11-15T14:57:44;16.60;75.40
8664;DHT22;4369;47.842;13.096;2022-11-15T15:00:12;16.30;78.40
8664;DHT22;4369;47.842;13.096;2022-11-15T15:02:41;16.00;83.90
8664;DHT22;4369;47.842;13.096;2022-11-15T15:05:20;15.80;88.00
8664;DHT22;4369;47.842;13.096;2022-11-15T15:07:47;15.50;90.50
8664;DHT22;4369;47.842;13.096;2022-11-15T15:10:15;15.30;91.90
8664;DHT22;4369;47.842;13.096;2022-11-15T15:12:43;15.00;93.30
8664;DHT22;4369;47.842;13.096;2022-11-15T15:15:14;14.70;94.60
8664;DHT22;4369;47.842;13.096;2022-11-15T15:17:41;14.50;95.90
8664;DHT22;4369;47.842;13.096;2022-11-15T15:20:09;14.50;96.00
8664;DHT22;4369;47.842;13.096;2022-11-15T15:22:37;14.50;96.00
8664;DHT22;4369;47.842;13.096;2022-11-15T15:25:19;14.30;96.60
8664;DHT22;4369;47.842;13.096;2022-11-15T15:27:46;14.10;97.30
8664;DHT22;4369;47.842;13.096;2022-11-15T15:30:13;13.80;98.10
8664;DHT22;4369;47.842;13.096;2022-11-15T15:32:41;13.50;99.70
8664;DHT22;4369;47.842;13.096;2022-11-15T15:35:11;13.40;99.90
8664;DHT22;4369;47.842;13.096;2022-11-15T15:37:39;13.30;99.90
8664;DHT22;4369;47.842;13.096;2022-11-15T15:40:14;13.20;99.90
8664;DHT22;4369;47.842;13.096;2022-11-15T15:42:41;13.00;99.90
8664;DHT22;4369;47.842;13.096;2022-11-15T15:45:09;12.80;99.90
8664;DHT22;4369;47.842;13.096;2022-11-15T15:47:36;12.60;99.90
8664;DHT22;4369;47.842;13.096;2022-11-15T15:50:05;12.60;99.90
8664;DHT22;4369;47.842;13.096;2022-11-15T15:52:40;12.50;99.90
8664;DHT22;4369;47.842;13.096;2022-11-15T15:55:07;12.40;99.90
8664;DHT22;4369;47.842;13.096;2022-11-15T15:57:35;12.10;99.90
8664;DHT22;4369;47.842;13.096;2022-11-15T16:00:04;12.00;99.90
8664;DHT22;4369;47.842;13.096;2022-11-15T16:02:32;11.80;99.90
8664;DHT22;4369;47.842;13.096;2022-11-15T16:05:21;11.70;99.90
8664;DHT22;4369;47.842;13.096;2022-11-15T16:07:50;11.60;99.90
8664;DHT22;4369;47.842;13.096;2022-11-15T16:10:21;11.40;99.90
8664;DHT22;4369;47.842;13.096;2022-11-15T16:12:51;11.30;99.90
8664;DHT22;4369;47.842;13.096;2022-11-15T16:15:19;11.20;99.90
8664;DHT22;4369;47.842;13.096;2022-11-15T16:17:51;11.20;99.90
8664;DHT22;4369;47.842;13.096;2022-11-15T16:20:37;11.10;99.90
8664;DHT22;4369;47.842;13.096;2022-11-15T16:23:12;11.00;99.90
8664;DHT22;4369;47.842;13.096;2022-11-15T16:28:38;10.80;99.90
8664;DHT22;4369;47.842;13.096;2022-11-15T16:31:09;10.80;99.90
8664;DHT22;4369;47.842;13.096;2022-11-15T16:33:37;10.80;99.90
8664;DHT22;4369;47.842;13.096;2022-11-15T16:36:18;10.70;99.90
8664;DHT22;4369;47.842;13.096;2022-11-15T16:38:48;10.80;99.90
8664;DHT22;4369;47.842;13.096;2022-11-15T16:41:19;10.70;99.90
8664;DHT22;4369;47.842;13.096;2022-11-15T16:43:46;10.50;99.90
8664;DHT22;4369;47.842;13.096;2022-11-15T16:46:15;10.50;99.90
8664;DHT22;4369;47.842;13.096;2022-11-15T16:48:49;10.40;99.90
8664;DHT22;4369;47.842;13.096;2022-11-15T16:51:19;10.30;99.90
8664;DHT22;4369;47.842;13.096;2022-11-15T16:53:53;10.30;99.90
8664;DHT22;4369;47.842;13.096;2022-11-15T16:56:23;10.30;99.90
8664;DHT22;4369;47.842;13.096;2022-11-15T16:58:51;10.10;99.90
8664;DHT22;4369;47.842;13.096;2022-11-15T17:07:10;9.80;99.90